createdAt,value
2022-10-16T00:02:24.635Z,92.10
2022-10-16T00:07:28.645Z,92.24
2022-10-16T00:12:32.067Z,92.31
2022-10-16T00:17:35.319Z,92.32
2022-10-16T00:22:38.592Z,92.38
2022-10-16T00:27:41.940Z,92.34
2022-10-16T00:32:45.182Z,92.33
2022-10-16T00:37:48.408Z,92.34
2022-10-16T00:42:51.658Z,92.35
2022-10-16T00:48:00.723Z,92.43
2022-10-16T00:53:13.006Z,92.57
2022-10-16T00:58:17.114Z,92.65
2022-10-16T01:03:26.713Z,92.83
2022-10-16T01:08:46.615Z,92.87
2022-10-16T01:13:55.293Z,92.89
2022-10-16T01:19:15.919Z,92.84
2022-10-16T01:24:41.195Z,92.69
2022-10-16T01:29:57.002Z,92.62
2022-10-16T01:35:13.739Z,92.57
2022-10-16T01:40:18.934Z,92.53
2022-10-16T01:45:22.851Z,92.39
2022-10-16T01:50:26.617Z,92.30
2022-10-16T01:55:34.283Z,92.25
2022-10-16T02:00:39.934Z,92.22
2022-10-16T02:05:54.350Z,92.19
2022-10-16T02:10:59.160Z,92.20
2022-10-16T02:16:02.437Z,92.18
2022-10-16T02:21:17.955Z,92.00
2022-10-16T02:26:30.070Z,91.94
2022-10-16T02:31:36.003Z,91.95
2022-10-16T02:36:40.683Z,91.89
2022-10-16T02:41:43.949Z,91.78
2022-10-16T02:46:47.302Z,91.70
2022-10-16T02:51:50.431Z,91.62
2022-10-16T02:56:53.614Z,91.54
2022-10-16T03:01:56.841Z,91.45
2022-10-16T03:07:00.241Z,91.36
2022-10-16T03:12:03.638Z,91.22
2022-10-16T03:17:07.481Z,91.19
2022-10-16T03:22:10.775Z,91.06
2022-10-16T03:27:14.005Z,91.09
2022-10-16T03:32:17.355Z,91.11
2022-10-16T03:37:20.639Z,91.15
2022-10-16T03:42:23.863Z,91.01
2022-10-16T03:47:27.392Z,90.57
2022-10-16T03:52:31.691Z,89.36
2022-10-16T03:57:34.976Z,89.49
2022-10-16T04:02:38.188Z,89.62
2022-10-16T04:07:41.433Z,89.60
2022-10-16T04:12:44.647Z,89.58
2022-10-16T04:17:48.290Z,88.81
2022-10-16T04:22:51.507Z,89.14
2022-10-16T04:27:55.380Z,89.61
2022-10-16T04:32:58.636Z,89.58
2022-10-16T04:38:01.873Z,89.81
2022-10-16T04:43:05.919Z,89.82
2022-10-16T04:48:09.153Z,90.07
2022-10-16T04:53:12.402Z,89.89
2022-10-16T04:58:15.539Z,90.26
2022-10-16T05:03:18.832Z,90.42
2022-10-16T05:08:22.278Z,90.55
2022-10-16T05:13:25.566Z,89.33
2022-10-16T05:18:30.025Z,88.96
2022-10-16T05:23:35.336Z,89.48
2022-10-16T05:28:38.635Z,89.63
2022-10-16T05:33:42.378Z,87.88
2022-10-16T05:38:47.161Z,88.29
2022-10-16T05:43:53.020Z,88.85
2022-10-16T05:48:57.397Z,88.84
2022-10-16T05:54:00.717Z,88.95
2022-10-16T05:59:07.483Z,88.73
2022-10-16T06:09:22.360Z,88.62
2022-10-16T06:14:25.908Z,88.83
2022-10-16T06:19:29.240Z,88.92
2022-10-16T06:24:32.609Z,89.18
2022-10-16T06:29:46.344Z,89.22
2022-10-16T06:34:55.179Z,89.23
2022-10-16T06:39:58.462Z,89.15
2022-10-16T06:45:05.422Z,89.03
2022-10-16T06:50:11.657Z,88.77
2022-10-16T06:55:18.423Z,88.08
2022-10-16T07:05:25.934Z,87.76
2022-10-16T07:10:29.123Z,87.38
2022-10-16T07:15:33.525Z,87.25
2022-10-16T07:20:36.836Z,86.95
2022-10-16T07:25:40.436Z,86.61
2022-10-16T07:30:46.880Z,86.02
2022-10-16T07:35:56.498Z,85.64
2022-10-16T07:41:04.496Z,85.29
2022-10-16T07:46:11.841Z,84.68
2022-10-16T07:51:17.610Z,84.49
2022-10-16T07:56:22.054Z,84.08
2022-10-16T08:01:28.617Z,84.11
2022-10-16T08:06:37.016Z,83.94
2022-10-16T08:11:40.473Z,83.47
2022-10-16T08:16:43.622Z,83.58
2022-10-16T08:21:51.917Z,83.34
2022-10-16T08:26:55.857Z,82.89
2022-10-16T08:32:02.096Z,82.18
2022-10-16T08:37:05.510Z,81.96
2022-10-16T08:42:14.426Z,81.73
2022-10-16T08:47:24.730Z,81.36
2022-10-16T08:52:32.279Z,81.15
2022-10-16T08:57:35.562Z,80.89
2022-10-16T09:02:40.540Z,80.36
2022-10-16T09:08:13.335Z,79.59
2022-10-16T09:13:28.502Z,79.23
2022-10-16T09:19:06.505Z,79.00
2022-10-16T09:24:18.198Z,79.00
2022-10-16T09:29:23.005Z,78.87
2022-10-16T09:34:33.610Z,79.00
2022-10-16T09:39:55.359Z,78.80
2022-10-16T09:45:02.535Z,78.09
2022-10-16T09:50:27.707Z,77.91
2022-10-16T09:55:33.037Z,78.05
2022-10-16T10:00:43.462Z,78.96
2022-10-16T10:05:50.250Z,79.30
2022-10-16T10:10:58.827Z,77.86
2022-10-16T10:16:04.142Z,78.45
2022-10-16T10:21:16.136Z,78.36
2022-10-16T10:26:22.530Z,76.47
2022-10-16T10:31:36.648Z,74.66
2022-10-16T10:36:41.724Z,74.92
2022-10-16T10:42:00.389Z,74.09
2022-10-16T10:47:06.657Z,72.91
2022-10-16T10:52:33.094Z,72.12
2022-10-16T10:58:00.795Z,70.94
2022-10-16T11:03:43.432Z,67.53
2022-10-16T11:08:51.316Z,68.13
2022-10-16T11:14:04.277Z,68.62
2022-10-16T11:19:40.758Z,68.58
2022-10-16T11:24:48.491Z,67.77
2022-10-16T11:30:04.880Z,65.29
2022-10-16T11:35:18.609Z,65.86
2022-10-16T11:40:36.956Z,65.92
2022-10-16T11:45:44.431Z,65.56
2022-10-16T11:51:09.546Z,65.93
2022-10-16T11:56:15.292Z,65.97
2022-10-16T12:01:36.639Z,65.62
2022-10-16T12:07:07.092Z,64.76
2022-10-16T12:12:38.862Z,63.03
2022-10-16T12:17:42.502Z,64.87
2022-10-16T12:22:51.919Z,65.79
2022-10-16T12:27:59.614Z,67.42
2022-10-16T12:33:23.398Z,67.54
2022-10-16T12:38:39.108Z,66.39
2022-10-16T12:43:49.294Z,67.30
2022-10-16T12:49:16.344Z,67.52
2022-10-16T12:54:42.964Z,67.66
2022-10-16T13:00:47.294Z,67.16
2022-10-16T13:06:07.820Z,67.40
2022-10-16T13:11:21.364Z,66.60
2022-10-16T13:16:32.299Z,65.83
2022-10-16T13:22:22.937Z,67.07
2022-10-16T13:27:38.445Z,66.58
2022-10-16T13:32:42.001Z,67.52
2022-10-16T13:37:48.515Z,66.95
2022-10-16T13:42:53.909Z,66.96
2022-10-16T13:48:04.803Z,67.89
2022-10-16T13:53:16.929Z,68.38
2022-10-16T13:58:21.041Z,68.24
2022-10-16T14:03:25.595Z,68.47
2022-10-16T14:08:31.007Z,67.99
2022-10-16T14:13:45.268Z,68.21
2022-10-16T14:18:56.344Z,66.92
2022-10-16T14:24:13.656Z,68.03
2022-10-16T14:29:21.117Z,68.37
2022-10-16T14:34:38.770Z,68.44
2022-10-16T14:39:45.793Z,68.57
2022-10-16T14:44:56.806Z,68.04
2022-10-16T14:50:01.145Z,68.26
2022-10-16T14:55:05.529Z,68.50
2022-10-16T15:00:18.407Z,68.83
2022-10-16T15:05:28.414Z,69.12
2022-10-16T15:10:44.682Z,69.35
2022-10-16T15:15:50.465Z,69.63
2022-10-16T15:20:54.066Z,69.96
2022-10-16T15:25:58.133Z,70.31
2022-10-16T15:31:01.548Z,71.00
2022-10-16T15:36:05.215Z,71.83
2022-10-16T15:41:09.018Z,71.91
2022-10-16T15:46:18.808Z,72.65
2022-10-16T15:51:28.416Z,72.47
2022-10-16T15:56:34.818Z,72.30
2022-10-16T16:01:43.483Z,73.70
2022-10-16T16:06:52.518Z,74.52
2022-10-16T16:12:03.838Z,74.30
2022-10-16T16:22:54.349Z,76.59
2022-10-16T16:28:06.978Z,76.65
2022-10-16T16:33:15.251Z,76.14
2022-10-16T16:38:21.032Z,77.74
2022-10-16T16:43:26.138Z,78.91
2022-10-16T16:48:30.780Z,76.51
2022-10-16T16:53:36.197Z,77.44
2022-10-16T16:58:44.661Z,77.88
2022-10-16T17:03:53.317Z,80.15
2022-10-16T17:08:56.838Z,80.88
2022-10-16T17:14:17.831Z,80.71
2022-10-16T17:19:24.062Z,78.85
2022-10-16T17:24:29.286Z,79.21
2022-10-16T17:29:40.873Z,81.49
2022-10-16T17:35:07.525Z,81.90
2022-10-16T17:40:17.013Z,80.47
2022-10-16T17:45:21.779Z,80.37
2022-10-16T17:50:30.866Z,79.81
2022-10-16T17:55:44.504Z,78.74
2022-10-16T18:00:52.953Z,80.34
2022-10-16T18:05:59.979Z,80.51
2022-10-16T18:11:11.659Z,80.69
2022-10-16T18:16:25.900Z,80.47
2022-10-16T18:21:31.792Z,81.99
2022-10-16T18:26:38.182Z,82.76
2022-10-16T18:31:53.748Z,83.56
2022-10-16T18:37:11.010Z,84.00
2022-10-16T18:42:16.253Z,84.76
2022-10-16T18:47:25.131Z,84.94
2022-10-16T18:52:32.839Z,84.52
2022-10-16T18:57:39.086Z,84.88
2022-10-16T19:02:46.741Z,84.93
2022-10-16T19:07:57.746Z,85.40
2022-10-16T19:13:08.904Z,83.48
2022-10-16T19:18:26.729Z,85.39
2022-10-16T19:23:38.106Z,86.83
2022-10-16T19:28:47.381Z,87.02
2022-10-16T19:34:24.420Z,87.40
2022-10-16T19:39:41.653Z,87.17
2022-10-16T19:44:46.731Z,87.45
2022-10-16T19:49:57.029Z,87.64
2022-10-16T19:55:16.987Z,87.84
2022-10-16T20:00:25.963Z,87.55
2022-10-16T20:05:34.067Z,87.61
2022-10-16T20:10:46.555Z,88.07
2022-10-16T20:16:15.383Z,88.72
2022-10-16T20:21:26.216Z,88.81
2022-10-16T20:26:36.987Z,88.94
2022-10-16T20:31:46.496Z,88.94
2022-10-16T20:37:02.594Z,89.06
2022-10-16T20:42:16.316Z,89.07
2022-10-16T20:47:30.068Z,89.24
2022-10-16T20:52:42.634Z,89.49
2022-10-16T20:57:49.628Z,89.62
2022-10-16T21:02:54.295Z,89.85
2022-10-16T21:08:07.277Z,89.99
2022-10-16T21:13:17.390Z,90.16
2022-10-16T21:18:35.091Z,90.31
2022-10-16T21:23:59.345Z,90.82
2022-10-16T21:29:16.073Z,91.13
2022-10-16T21:34:31.895Z,91.24
2022-10-16T21:39:45.837Z,91.28
2022-10-16T21:44:51.708Z,91.39
2022-10-16T21:50:12.034Z,91.37
2022-10-16T21:55:44.693Z,91.38
2022-10-16T22:01:23.149Z,91.35
2022-10-16T22:06:41.476Z,91.33
2022-10-16T22:12:07.773Z,91.26
2022-10-16T22:17:35.197Z,91.32
2022-10-16T22:22:38.607Z,91.15
2022-10-16T22:27:53.851Z,91.17
2022-10-16T22:33:00.407Z,91.53
2022-10-16T22:38:08.404Z,92.00
2022-10-16T22:43:11.951Z,92.12
2022-10-16T22:48:15.467Z,92.04
2022-10-16T22:53:22.779Z,91.97
2022-10-16T22:58:26.343Z,91.92
2022-10-16T23:03:38.559Z,91.96
2022-10-16T23:08:43.233Z,91.89
2022-10-16T23:13:46.944Z,91.88
2022-10-16T23:18:50.822Z,92.08
2022-10-16T23:23:58.930Z,92.21
2022-10-16T23:29:02.774Z,92.02
2022-10-16T23:34:11.238Z,88.71
2022-10-16T23:39:14.674Z,88.50
2022-10-16T23:44:18.207Z,89.16
2022-10-16T23:49:21.987Z,90.13
2022-10-16T23:54:30.227Z,90.47
2022-10-16T23:59:38.081Z,90.75
